Time;durP1;ratioP1;P1;durP2;ratioP2;P2;SDS_P1;SDS_P2;PMS_P1;PMS_P2;Temp;Humidity;BMP_temperature;BMP_pressure;BME280_temperature;BME280_humidity;BME280_pressure;Samples;Min_cycle;Max_cycle;Signal;HPM_P1;HPM_P2
2021/03/11 00:00:09;;;;;;;21.90;16.30;;;;;;;1.11;100.00;95686.38;1016040;29;20368;-51
2021/03/11 00:00:40;;;;;;;22.00;15.57;;;;;;;1.16;100.00;95689.59;1019836;29;20039;-50
2021/03/11 00:01:11;;;;;;;21.02;15.43;;;;;;;1.21;100.00;95689.44;1019852;28;20279;-50
2021/03/11 00:01:41;;;;;;;20.42;15.93;;;;;;;1.15;100.00;95686.19;1019877;29;20047;-50
2021/03/11 00:02:12;;;;;;;20.35;15.45;;;;;;;1.16;100.00;95685.31;1024043;28;20015;-51
2021/03/11 00:02:43;;;;;;;22.52;15.50;;;;;;;1.19;100.00;95683.50;1023695;29;20035;-50
2021/03/11 00:03:15;;;;;;;22.77;16.27;;;;;;;1.24;100.00;95685.00;1015948;29;20016;-50
2021/03/11 00:03:46;;;;;;;21.25;15.57;;;;;;;1.17;100.00;95684.38;1023695;29;20114;-50
2021/03/11 00:04:17;;;;;;;23.67;16.58;;;;;;;1.19;100.00;95676.59;1015970;29;20277;-49
2021/03/11 00:04:47;;;;;;;21.50;16.75;;;;;;;1.14;100.00;95675.91;1012028;29;20016;-51
2021/03/11 00:05:19;;;;;;;23.17;16.27;;;;;;;1.20;100.00;95683.41;1015793;29;20027;-50
2021/03/11 00:05:49;;;;;;;22.83;15.55;;;;;;;1.20;100.00;95682.59;1027855;28;20461;-50
2021/03/11 00:06:20;;;;;;;24.30;16.92;;;;;;;1.14;100.00;95683.66;1023840;29;20259;-51
2021/03/11 00:06:51;;;;;;;19.80;15.07;;;;;;;1.14;100.00;95683.66;1015952;29;20409;-50
2021/03/11 00:07:22;;;;;;;21.67;15.77;;;;;;;1.15;100.00;95681.03;1023898;28;20247;-50
2021/03/11 00:07:52;;;;;;;20.17;15.45;;;;;;;1.16;100.00;95680.13;1027901;28;20057;-50
2021/03/11 00:08:23;;;;;;;19.65;14.75;;;;;;;1.16;100.00;95681.84;1027975;28;20448;-50
2021/03/11 00:08:53;;;;;;;22.00;15.48;;;;;;;1.23;100.00;95679.91;1012030;29;20028;-50
2021/03/11 00:09:24;;;;;;;21.08;15.48;;;;;;;1.24;100.00;95685.00;1019886;29;20023;-52
2021/03/11 00:09:55;;;;;;;21.70;15.38;;;;;;;1.24;100.00;95687.59;1027932;28;20026;-48
2021/03/11 00:10:26;;;;;;;25.17;16.42;;;;;;;1.14;100.00;95683.66;1016142;29;20023;-50
2021/03/11 00:10:56;;;;;;;21.25;15.75;;;;;;;1.13;100.00;95682.00;1024067;29;20015;-52
2021/03/11 00:11:28;;;;;;;22.88;16.40;;;;;;;1.09;100.00;95685.56;1024030;29;20035;-49
2021/03/11 00:11:59;;;;;;;21.55;15.65;;;;;;;1.02;100.00;95678.97;1020342;29;20022;-50
2021/03/11 00:12:29;;;;;;;21.55;16.40;;;;;;;1.07;100.00;95682.19;1024207;28;20262;-50
2021/03/11 00:13:00;;;;;;;23.10;16.45;;;;;;;1.14;100.00;95684.50;1032061;28;20030;-50
2021/03/11 00:13:31;;;;;;;22.10;16.23;;;;;;;1.15;100.00;95682.78;1019968;28;20047;-51
2021/03/11 00:14:01;;;;;;;20.80;15.73;;;;;;;1.17;100.00;95684.38;1016490;29;20028;-49
2021/03/11 00:14:32;;;;;;;22.20;15.80;;;;;;;1.16;100.00;95687.88;1024460;29;20024;-50
2021/03/11 00:15:05;;;;;;;23.45;16.08;;;;;;;1.17;100.00;95688.72;1020110;29;20023;-50
2021/03/11 00:15:37;;;;;;;22.27;15.35;;;;;;;1.16;100.00;95687.88;1016503;28;20016;-50
2021/03/11 00:16:08;;;;;;;18.85;15.00;;;;;;;1.14;100.00;95683.66;1020211;29;20352;-50
2021/03/11 00:16:39;;;;;;;24.05;15.07;;;;;;;1.12;100.00;95685.47;1024195;28;20355;-52
2021/03/11 00:17:10;;;;;;;19.10;14.57;;;;;;;1.12;100.00;95681.13;1028043;28;20029;-49
2021/03/11 00:17:40;;;;;;;21.58;15.90;;;;;;;1.09;100.00;95680.41;1027847;28;20018;-48
2021/03/11 00:18:11;;;;;;;23.33;16.80;;;;;;;1.05;100.00;95684.00;1023808;28;20291;-50
2021/03/11 00:18:42;;;;;;;20.42;14.75;;;;;;;1.05;100.00;95679.69;1023868;28;20019;-49
2021/03/11 00:19:13;;;;;;;22.67;16.60;;;;;;;1.06;100.00;95680.53;1015930;29;20020;-51
2021/03/11 00:19:44;;;;;;;23.38;15.13;;;;;;;1.05;100.00;95676.25;1015888;29;20031;-50
2021/03/11 00:20:16;;;;;;;20.48;15.15;;;;;;;0.95;100.00;95681.75;1015942;29;20272;-50
2021/03/11 00:20:47;;;;;;;19.95;14.80;;;;;;;0.97;100.00;95677.38;1023825;28;20297;-50
2021/03/11 00:21:18;;;;;;;20.55;14.60;;;;;;;0.95;100.00;95683.50;1019710;29;20271;-50
2021/03/11 00:21:49;;;;;;;19.10;14.20;;;;;;;0.93;100.00;95680.97;1019472;29;20476;-51
2021/03/11 00:22:20;;;;;;;20.17;14.43;;;;;;;0.92;100.00;95684.47;1023754;29;20263;-50
2021/03/11 00:22:51;;;;;;;20.50;16.30;;;;;;;0.92;100.00;95686.19;1019964;29;20253;-51
2021/03/11 00:23:22;;;;;;;21.25;15.82;;;;;;;0.93;100.00;95685.31;1023834;29;20019;-50
2021/03/11 00:23:52;;;;;;;21.42;16.63;;;;;;;0.89;100.00;95686.31;1019510;28;20019;-50
2021/03/11 00:24:23;;;;;;;20.23;14.88;;;;;;;0.88;100.00;95684.63;1019929;29;20028;-50
2021/03/11 00:24:54;;;;;;;19.90;13.90;;;;;;;0.88;100.00;95682.91;1023852;29;20051;-50
2021/03/11 00:25:35;;;;;;;20.27;15.38;;;;;;;0.93;100.00;95682.72;1019685;29;20266;-52
2021/03/11 00:26:06;;;;;;;18.40;14.63;;;;;;;0.91;100.00;95687.09;1023683;29;20466;-49
2021/03/11 00:26:37;;;;;;;22.85;15.10;;;;;;;0.93;100.00;95693.88;1015938;29;20276;-50
2021/03/11 00:27:07;;;;;;;19.23;13.93;;;;;;;0.84;100.00;95676.16;1019747;29;20107;-50
2021/03/11 00:27:39;;;;;;;22.00;15.30;;;;;;;0.84;100.00;95686.47;1015964;29;20021;-51
2021/03/11 00:28:09;;;;;;;19.80;14.50;;;;;;;0.78;100.00;95691.84;1011882;29;20607;-50
2021/03/11 00:28:40;;;;;;;22.35;14.55;;;;;;;0.82;100.00;95687.44;1019874;29;20240;-50
2021/03/11 00:29:10;;;;;;;18.17;13.55;;;;;;;0.82;100.00;95690.00;1011985;29;20056;-50
2021/03/11 00:29:41;;;;;;;19.48;14.57;;;;;;;0.79;100.00;95688.41;1019858;29;20063;-50
2021/03/11 00:30:12;;;;;;;19.23;13.65;;;;;;;0.85;100.00;95689.91;1019692;28;20063;-49
2021/03/11 00:30:43;;;;;;;19.10;14.18;;;;;;;0.80;100.00;95696.97;1015874;29;20529;-51
2021/03/11 00:31:14;;;;;;;18.38;13.10;;;;;;;0.72;100.00;95682.59;1015917;29;20253;-49
2021/03/11 00:31:45;;;;;;;18.27;13.82;;;;;;;0.75;100.00;95692.81;1019847;29;20577;-50
2021/03/11 00:32:15;;;;;;;19.30;13.40;;;;;;;0.78;100.00;95684.94;1019741;29;20023;-49
2021/03/11 00:32:46;;;;;;;21.15;14.40;;;;;;;0.82;100.00;95685.69;1015920;29;20024;-50
2021/03/11 00:33:17;;;;;;;20.42;14.60;;;;;;;0.86;100.00;95683.84;1019876;29;20090;-49
2021/03/11 00:33:47;;;;;;;19.02;14.55;;;;;;;0.85;100.00;95671.84;1011867;29;20132;-50
2021/03/11 00:34:18;;;;;;;21.33;13.48;;;;;;;0.92;100.00;95684.47;1015781;29;20024;-50
2021/03/11 00:34:49;;;;;;;18.23;13.63;;;;;;;0.97;100.00;95687.69;1019789;29;20026;-49
2021/03/11 00:35:19;;;;;;;18.73;13.95;;;;;;;0.96;100.00;95686.03;1015797;29;20047;-51
2021/03/11 00:35:50;;;;;;;22.48;13.88;;;;;;;1.00;100.00;95680.78;1016039;29;20091;-50
2021/03/11 00:36:21;;;;;;;19.85;14.18;;;;;;;0.96;100.00;95690.34;1019710;28;20501;-50
2021/03/11 00:36:52;;;;;;;17.13;13.07;;;;;;;0.97;100.00;95687.69;1015930;29;20028;-50
2021/03/11 00:37:23;;;;;;;17.45;13.35;;;;;;;1.02;100.00;95684.13;1023777;29;20119;-50
2021/03/11 00:37:53;;;;;;;17.90;13.10;;;;;;;1.06;100.00;95686.53;1019827;29;20334;-51
2021/03/11 00:38:24;;;;;;;19.48;13.85;;;;;;;1.01;100.00;95685.84;1019660;28;20027;-50
2021/03/11 00:38:55;;;;;;;18.73;13.75;;;;;;;1.02;100.00;95689.28;1023822;29;20425;-49
2021/03/11 00:39:25;;;;;;;20.20;13.70;;;;;;;0.97;100.00;95685.13;1023935;29;20011;-50
2021/03/11 00:39:56;;;;;;;19.75;14.02;;;;;;;1.00;100.00;95685.94;1019959;29;20023;-50
2021/03/11 00:40:27;;;;;;;22.77;13.30;;;;;;;0.99;100.00;95686.81;1019694;29;20022;-50
2021/03/11 00:40:57;;;;;;;18.00;13.52;;;;;;;1.02;100.00;95674.66;1019920;29;20023;-49
2021/03/11 00:41:28;;;;;;;18.05;12.48;;;;;;;0.99;100.00;95684.22;1019812;29;20027;-50
2021/03/11 00:41:59;;;;;;;17.52;12.73;;;;;;;0.95;100.00;95686.91;1015939;29;20063;-49
2021/03/11 00:42:29;;;;;;;19.27;14.50;;;;;;;0.88;100.00;95680.31;1015727;29;20406;-49
2021/03/11 00:43:00;;;;;;;18.05;13.15;;;;;;;0.91;100.00;95680.19;1016008;29;20023;-50
2021/03/11 00:43:31;;;;;;;19.00;12.75;;;;;;;0.94;100.00;95681.84;1007949;29;20028;-49
2021/03/11 00:44:02;;;;;;;20.13;13.30;;;;;;;0.94;100.00;95680.09;1019704;29;20752;-51
2021/03/11 00:44:33;;;;;;;18.08;14.05;;;;;;;0.93;100.00;95680.13;1027789;28;20019;-49
2021/03/11 00:45:05;;;;;;;17.95;13.35;;;;;;;0.87;100.00;95676.03;1011778;29;20301;-49
2021/03/11 00:45:36;;;;;;;21.05;13.35;;;;;;;0.87;100.00;95678.63;1023642;29;20031;-50
2021/03/11 00:46:06;;;;;;;19.30;13.52;;;;;;;0.83;100.00;95676.22;1015920;29;20268;-51
2021/03/11 00:46:37;;;;;;;18.83;13.45;;;;;;;0.84;100.00;95683.88;1019700;29;20259;-49
2021/03/11 00:47:08;;;;;;;18.98;13.00;;;;;;;0.89;100.00;95676.00;1019760;29;20031;-50
2021/03/11 00:47:39;;;;;;;19.67;14.27;;;;;;;0.91;100.00;95675.03;1019840;29;20536;-50
2021/03/11 00:48:10;;;;;;;17.98;13.18;;;;;;;0.83;100.00;95674.47;1027727;28;20093;-51
2021/03/11 00:48:40;;;;;;;19.55;13.52;;;;;;;0.86;100.00;95681.25;1023663;28;20259;-50
2021/03/11 00:49:11;;;;;;;19.30;13.90;;;;;;;0.86;100.00;95676.09;1023691;29;20021;-50
2021/03/11 00:49:42;;;;;;;18.23;12.65;;;;;;;0.85;100.00;95679.59;1019784;29;20023;-49
2021/03/11 00:50:16;;;;;;;19.50;12.73;;;;;;;0.88;100.00;95682.03;1015905;29;20031;-49
2021/03/11 00:50:47;;;;;;;18.48;13.43;;;;;;;0.90;100.00;95681.09;1015662;29;20395;-50
2021/03/11 00:51:17;;;;;;;16.15;13.07;;;;;;;0.94;100.00;95676.69;1015828;29;20259;-50
2021/03/11 00:51:48;;;;;;;17.48;12.30;;;;;;;1.04;100.00;95675.44;1019775;28;20027;-49
2021/03/11 00:52:19;;;;;;;18.25;13.23;;;;;;;0.99;100.00;95669.59;1019930;28;20034;-50
2021/03/11 00:52:49;;;;;;;17.67;12.57;;;;;;;0.95;100.00;95674.00;1015811;29;20437;-50
2021/03/11 00:53:20;;;;;;;18.80;12.98;;;;;;;0.95;100.00;95678.34;1015772;29;20024;-51
2021/03/11 00:53:51;;;;;;;20.25;12.35;;;;;;;0.98;100.00;95675.66;1011726;29;20024;-50
2021/03/11 00:54:22;;;;;;;19.30;13.57;;;;;;;0.95;100.00;95679.19;1015833;29;20024;-50
2021/03/11 00:54:53;;;;;;;18.25;13.98;;;;;;;0.94;100.00;95680.09;1019676;29;20078;-50
2021/03/11 00:55:23;;;;;;;18.33;13.23;;;;;;;1.01;100.00;95672.94;1023614;28;20062;-50
2021/03/11 00:55:54;;;;;;;16.48;12.55;;;;;;;1.04;100.00;95670.25;1023749;28;20114;-49
2021/03/11 00:56:25;;;;;;;16.50;12.57;;;;;;;1.08;100.00;95678.72;1023882;28;20027;-50
2021/03/11 00:56:56;;;;;;;18.65;13.43;;;;;;;1.08;100.00;95676.16;1023735;28;20435;-50
2021/03/11 00:57:26;;;;;;;17.38;13.10;;;;;;;1.09;100.00;95672.66;1019673;29;20099;-51
2021/03/11 00:57:57;;;;;;;21.27;13.27;;;;;;;1.12;100.00;95669.97;1019718;28;20449;-51
2021/03/11 00:58:28;;;;;;;19.30;13.23;;;;;;;1.07;100.00;95677.03;1015887;28;20493;-50
2021/03/11 00:58:59;;;;;;;19.08;12.98;;;;;;;1.09;100.00;95672.66;1019733;28;20031;-50
2021/03/11 00:59:29;;;;;;;16.17;12.68;;;;;;;1.12;100.00;95673.38;1023608;28;20489;-50
2021/03/11 01:00:00;;;;;;;17.48;12.82;;;;;;;1.12;100.00;95672.56;1019795;28;20026;-49
2021/03/11 01:00:31;;;;;;;18.77;12.00;;;;;;;1.13;100.00;95671.66;1019777;28;20537;-50
2021/03/11 01:01:01;;;;;;;19.45;12.32;;;;;;;1.00;100.00;95663.53;1023743;28;20509;-50
2021/03/11 01:01:33;;;;;;;15.60;12.27;;;;;;;1.14;100.00;95673.34;1027622;28;20027;-50
2021/03/11 01:02:04;;;;;;;16.95;12.10;;;;;;;1.09;100.00;95665.78;1015780;29;20095;-50
2021/03/11 01:02:35;;;;;;;16.10;12.35;;;;;;;1.13;100.00;95671.66;1019739;29;20844;-51
2021/03/11 01:03:05;;;;;;;16.27;12.35;;;;;;;1.22;100.00;95663.59;1019843;29;20642;-50
2021/03/11 01:03:36;;;;;;;17.63;13.80;;;;;;;1.29;100.00;95662.44;1019477;29;20020;-50
2021/03/11 01:04:07;;;;;;;15.73;11.82;;;;;;;1.22;100.00;95660.13;1019879;29;20053;-49
2021/03/11 01:04:38;;;;;;;17.48;12.65;;;;;;;1.16;100.00;95664.66;1011975;29;20056;-50
2021/03/11 01:05:09;;;;;;;18.45;12.60;;;;;;;1.12;100.00;95660.50;1015683;29;20083;-50
2021/03/11 01:05:39;;;;;;;16.50;12.85;;;;;;;0.99;100.00;95653.28;1019568;28;20067;-51
2021/03/11 01:06:10;;;;;;;15.70;11.73;;;;;;;1.08;100.00;95658.09;1019725;29;20023;-49
2021/03/11 01:06:41;;;;;;;19.92;12.88;;;;;;;1.07;100.00;95662.44;1011803;29;20048;-51
2021/03/11 01:07:12;;;;;;;18.38;13.05;;;;;;;1.03;100.00;95660.84;1015457;29;20445;-50
2021/03/11 01:07:43;;;;;;;16.38;12.38;;;;;;;1.10;100.00;95666.63;1015734;29;20491;-50
2021/03/11 01:08:14;;;;;;;18.10;13.32;;;;;;;1.17;100.00;95668.06;1023653;28;20094;-50
2021/03/11 01:08:45;;;;;;;18.10;13.10;;;;;;;1.16;100.00;95662.06;1015859;29;20020;-50
2021/03/11 01:09:16;;;;;;;18.15;13.27;;;;;;;1.22;100.00;95671.31;1019734;28;20745;-50
2021/03/11 01:09:47;;;;;;;15.38;12.25;;;;;;;1.19;100.00;95666.28;1023617;28;20294;-50
2021/03/11 01:10:18;;;;;;;16.25;11.68;;;;;;;1.21;100.00;95658.47;1015801;29;20031;-50
2021/03/11 01:10:48;;;;;;;15.80;11.95;;;;;;;1.22;100.00;95663.59;1019697;29;20027;-49
2021/03/11 01:11:19;;;;;;;18.52;12.85;;;;;;;1.29;100.00;95661.59;1015744;29;20576;-50
2021/03/11 01:11:50;;;;;;;19.90;12.18;;;;;;;1.26;100.00;95662.56;1019595;29;20409;-49
2021/03/11 01:12:21;;;;;;;18.98;12.38;;;;;;;1.27;100.00;95663.41;1019804;29;20079;-49
2021/03/11 01:12:51;;;;;;;16.08;11.60;;;;;;;1.27;100.00;95659.06;1015796;29;20032;-50
2021/03/11 01:13:22;;;;;;;16.40;12.20;;;;;;;1.23;100.00;95659.25;1019670;29;20116;-49
2021/03/11 01:13:54;;;;;;;16.38;12.63;;;;;;;1.16;100.00;95656.06;1019419;29;20047;-50
2021/03/11 01:14:25;;;;;;;16.48;11.85;;;;;;;1.10;100.00;95661.47;1015808;29;20027;-50
2021/03/11 01:14:55;;;;;;;17.45;11.88;;;;;;;1.17;100.00;95662.91;1023799;29;20621;-50
2021/03/11 01:15:28;;;;;;;16.48;11.60;;;;;;;1.20;100.00;95659.38;1019628;29;20106;-48
2021/03/11 01:15:59;;;;;;;15.18;11.63;;;;;;;1.13;100.00;95653.63;1027479;28;20476;-49
2021/03/11 01:16:29;;;;;;;17.83;12.00;;;;;;;1.24;100.00;95664.38;1023732;29;20288;-50
2021/03/11 01:17:00;;;;;;;15.68;11.57;;;;;;;1.28;100.00;95665.09;1023643;28;20050;-50
2021/03/11 01:17:31;;;;;;;15.20;11.32;;;;;;;1.28;100.00;95662.50;1027660;28;20266;-50
2021/03/11 01:18:05;;;;;;;16.85;11.77;;;;;;;1.34;100.00;95654.53;1023514;28;20023;-48
2021/03/11 01:18:35;;;;;;;17.05;11.95;;;;;;;1.34;100.00;95657.09;1023640;28;20262;-51
2021/03/11 01:19:06;;;;;;;17.00;12.50;;;;;;;1.27;100.00;95661.66;1019691;29;20295;-50
2021/03/11 01:19:37;;;;;;;15.95;12.13;;;;;;;1.27;100.00;95658.22;1011886;29;20029;-50
2021/03/11 01:20:12;;;;;;;19.63;10.45;;;;;;;1.28;100.00;95659.94;1019610;29;20272;-51
2021/03/11 01:20:43;;;;;;;15.25;11.55;;;;;;;1.30;100.00;95664.13;1019800;29;20019;-50
2021/03/11 01:21:14;;;;;;;15.57;10.52;;;;;;;1.33;100.00;95661.44;1023834;28;20251;-50
2021/03/11 01:21:45;;;;;;;16.05;11.82;;;;;;;1.39;100.00;95660.34;1019819;28;20248;-50
2021/03/11 01:22:15;;;;;;;15.75;11.80;;;;;;;1.36;100.00;95655.31;1015652;29;20111;-50
2021/03/11 01:22:46;;;;;;;20.45;12.63;;;;;;;1.34;100.00;95657.09;1023689;28;20015;-50
2021/03/11 01:23:17;;;;;;;15.23;11.13;;;;;;;1.30;100.00;95653.78;1019732;29;20031;-50
2021/03/11 01:23:47;;;;;;;22.30;12.85;;;;;;;1.25;100.00;95660.88;1019540;29;20023;-50
2021/03/11 01:24:18;;;;;;;15.60;10.82;;;;;;;1.28;100.00;95650.44;1015622;29;20020;-50
2021/03/11 01:24:49;;;;;;;15.05;10.82;;;;;;;1.34;100.00;95657.09;1023673;28;20034;-50
2021/03/11 01:25:20;;;;;;;15.32;10.65;;;;;;;1.35;100.00;95664.78;1015674;28;20024;-51
2021/03/11 01:25:50;;;;;;;19.10;12.20;;;;;;;1.39;100.00;95660.34;1019716;29;20027;-49
2021/03/11 01:26:21;;;;;;;15.45;11.32;;;;;;;1.36;100.00;95669.03;1019581;28;20098;-51
2021/03/11 01:26:52;;;;;;;16.25;11.25;;;;;;;1.33;100.00;95666.59;1015798;29;20183;-51
2021/03/11 01:27:23;;;;;;;14.38;10.35;;;;;;;1.36;100.00;95657.88;1022607;29;20601;-50
2021/03/11 01:27:54;;;;;;;14.45;10.95;;;;;;;1.38;100.00;95663.81;1019778;29;20537;-50
2021/03/11 01:28:25;;;;;;;15.95;11.05;;;;;;;1.28;100.00;95655.59;1023523;29;20246;-51
2021/03/11 01:28:56;;;;;;;16.25;10.75;;;;;;;1.34;100.00;95665.69;1019723;29;20024;-50
2021/03/11 01:29:27;;;;;;;15.18;11.00;;;;;;;1.35;100.00;95664.78;1023682;29;20303;-50
2021/03/11 01:29:58;;;;;;;13.90;10.25;;;;;;;1.28;100.00;95662.50;1015706;29;20678;-49
2021/03/11 01:30:29;;;;;;;14.30;10.18;;;;;;;1.33;100.00;95656.28;1019544;29;20062;-51
2021/03/11 01:31:00;;;;;;;12.75;10.07;;;;;;;1.38;100.00;95660.41;1015781;29;20785;-50
2021/03/11 01:31:30;;;;;;;14.38;10.73;;;;;;;1.27;100.00;95659.06;1023710;28;20027;-50
2021/03/11 01:32:01;;;;;;;16.90;10.15;;;;;;;1.23;100.00;95660.09;1019658;29;20433;-50
2021/03/11 01:32:32;;;;;;;14.90;9.90;;;;;;;1.32;100.00;95664.91;1011639;29;20028;-50
2021/03/11 01:33:03;;;;;;;13.10;10.10;;;;;;;1.35;100.00;95656.19;1019631;29;20032;-49
2021/03/11 01:33:33;;;;;;;14.48;9.98;;;;;;;1.30;100.00;95660.72;1027448;28;20027;-50
2021/03/11 01:34:04;;;;;;;14.93;10.18;;;;;;;1.35;100.00;95656.19;1019634;29;20260;-50
2021/03/11 01:34:35;;;;;;;12.20;9.50;;;;;;;1.39;100.00;95662.94;1027514;28;20413;-53
2021/03/11 01:35:07;;;;;;;13.35;9.65;;;;;;;1.39;100.00;95657.78;1023660;28;20114;-49
2021/03/11 01:35:37;;;;;;;13.60;10.32;;;;;;;1.44;100.00;95655.81;1019646;28;20402;-50
2021/03/11 01:36:08;;;;;;;14.10;10.07;;;;;;;1.45;100.00;95651.53;1019633;29;20272;-50
2021/03/11 01:36:39;;;;;;;12.52;9.50;;;;;;;1.47;100.00;95662.63;1019507;28;20114;-50
2021/03/11 01:37:10;;;;;;;13.82;10.02;;;;;;;1.45;100.00;95657.53;1023744;28;20054;-50
2021/03/11 01:37:41;;;;;;;13.02;9.55;;;;;;;1.46;100.00;95646.28;1027526;28;20405;-50
2021/03/11 01:38:11;;;;;;;14.15;9.32;;;;;;;1.44;100.00;95640.34;1027576;28;20444;-50
2021/03/11 01:38:42;;;;;;;16.58;10.27;;;;;;;1.38;100.00;95632.84;1019512;29;20367;-50
2021/03/11 01:39:13;;;;;;;13.32;9.18;;;;;;;1.42;100.00;95631.81;1015704;29;20402;-50
2021/03/11 01:39:44;;;;;;;13.43;9.43;;;;;;;1.44;100.00;95630.00;1011801;29;20036;-50
2021/03/11 01:40:15;;;;;;;12.23;8.88;;;;;;;1.46;100.00;95640.28;1015664;29;20027;-50
2021/03/11 01:40:45;;;;;;;13.50;10.20;;;;;;;1.40;100.00;95637.97;1011710;29;20032;-50
2021/03/11 01:41:16;;;;;;;14.55;9.80;;;;;;;1.42;100.00;95642.16;1019645;29;20750;-49
2021/03/11 01:41:47;;;;;;;14.95;9.32;;;;;;;1.46;100.00;95637.72;1011963;29;20024;-50
2021/03/11 01:42:18;;;;;;;13.05;9.68;;;;;;;1.46;100.00;95635.97;1015874;28;20028;-50
2021/03/11 01:42:48;;;;;;;11.85;8.73;;;;;;;1.45;100.00;95636.03;1027583;28;20050;-52
2021/03/11 01:43:20;;;;;;;12.05;9.00;;;;;;;1.31;100.00;95632.25;1027570;28;20026;-50
2021/03/11 01:43:55;;;;;;;13.35;9.80;;;;;;;1.36;100.00;95637.22;1019519;29;20023;-52
2021/03/11 01:44:25;;;;;;;11.77;9.18;;;;;;;1.35;100.00;95631.25;1023515;29;20267;-49
2021/03/11 01:44:56;;;;;;;13.13;9.45;;;;;;;1.39;100.00;95641.41;1027519;28;20760;-50
2021/03/11 01:45:27;;;;;;;12.65;8.93;;;;;;;1.43;100.00;95636.09;1019443;28;20110;-50
2021/03/11 01:45:58;;;;;;;14.18;9.18;;;;;;;1.44;100.00;95622.28;1015751;29;20020;-50
2021/03/11 01:46:29;;;;;;;12.07;9.05;;;;;;;1.41;100.00;95611.22;1019550;29;20033;-50
2021/03/11 01:46:59;;;;;;;13.40;9.48;;;;;;;1.46;100.00;95609.31;1019584;28;20026;-50
2021/03/11 01:47:30;;;;;;;13.45;9.50;;;;;;;1.38;100.00;95601.03;1023561;29;20512;-50
2021/03/11 01:48:01;;;;;;;12.88;8.95;;;;;;;1.38;100.00;95601.88;1011741;29;20020;-50
2021/03/11 01:48:31;;;;;;;12.00;8.85;;;;;;;1.35;100.00;95599.41;1023566;29;20058;-50
2021/03/11 01:49:02;;;;;;;14.23;10.00;;;;;;;1.40;100.00;95612.13;1023684;28;20027;-49
2021/03/11 01:49:33;;;;;;;12.68;9.32;;;;;;;1.41;100.00;95606.94;1015716;29;20028;-51
2021/03/11 01:50:05;;;;;;;13.80;10.13;;;;;;;1.49;100.00;95611.78;1023566;28;20023;-50
2021/03/11 01:50:35;;;;;;;15.15;10.57;;;;;;;1.45;100.00;95610.22;1019604;29;20036;-50
2021/03/11 01:51:07;;;;;;;12.52;8.60;;;;;;;1.46;100.00;95606.72;1011819;29;20604;-50
2021/03/11 01:51:37;;;;;;;12.30;9.02;;;;;;;1.45;100.00;95605.06;1019493;28;20467;-50
2021/03/11 01:52:08;;;;;;;13.70;8.90;;;;;;;1.47;100.00;95590.34;1019669;29;20315;-50
2021/03/11 01:52:39;;;;;;;13.18;10.15;;;;;;;1.38;100.00;95576.06;1015754;29;20024;-49
2021/03/11 01:53:10;;;;;;;16.33;9.80;;;;;;;1.36;100.00;95573.53;1011764;29;20043;-51
2021/03/11 01:53:40;;;;;;;12.32;8.75;;;;;;;1.41;100.00;95560.47;1023216;28;20279;-49
2021/03/11 01:54:11;;;;;;;13.77;9.25;;;;;;;1.45;100.00;95571.50;1023583;28;20078;-51
2021/03/11 01:54:42;;;;;;;15.05;9.88;;;;;;;1.45;100.00;95564.59;1023658;28;20023;-50
2021/03/11 01:55:14;;;;;;;11.90;9.23;;;;;;;1.46;100.00;95557.69;1027517;28;20270;-50
2021/03/11 01:55:44;;;;;;;18.15;9.80;;;;;;;1.44;100.00;95560.31;1027487;28;20033;-50
2021/03/11 01:56:15;;;;;;;11.35;8.73;;;;;;;1.47;100.00;95555.03;1019643;29;20331;-51
2021/03/11 01:56:46;;;;;;;13.43;9.05;;;;;;;1.42;100.00;95548.38;1019528;28;20126;-50
2021/03/11 01:57:17;;;;;;;14.05;9.98;;;;;;;1.45;100.00;95543.13;1023547;28;20181;-50
2021/03/11 01:57:48;;;;;;;13.75;10.07;;;;;;;1.45;100.00;95556.00;1023504;29;20073;-50
2021/03/11 01:58:19;;;;;;;13.40;9.88;;;;;;;1.44;100.00;95562.06;1019577;29;20267;-49
2021/03/11 01:58:50;;;;;;;16.60;10.13;;;;;;;1.48;100.00;95559.31;1023624;29;20023;-48
2021/03/11 01:59:21;;;;;;;14.35;9.55;;;;;;;1.46;100.00;95539.59;1023567;29;20074;-49
2021/03/11 01:59:52;;;;;;;13.18;8.75;;;;;;;1.64;100.00;95556.94;1015605;29;20273;-51
2021/03/11 02:00:23;;;;;;;12.82;9.10;;;;;;;1.66;100.00;95547.38;1015717;29;20028;-49
2021/03/11 02:00:54;;;;;;;14.82;10.82;;;;;;;1.70;100.00;95553.25;1015761;29;20056;-49
2021/03/11 02:01:24;;;;;;;13.50;9.75;;;;;;;1.73;100.00;95551.38;1011733;29;20288;-50
2021/03/11 02:01:57;;;;;;;13.27;9.43;;;;;;;1.73;100.00;95545.38;1023446;28;20270;-49
2021/03/11 02:02:28;;;;;;;12.90;8.75;;;;;;;1.67;100.00;95541.31;1019582;29;20045;-51
2021/03/11 02:02:59;;;;;;;14.68;8.95;;;;;;;1.73;100.00;95545.38;1019644;28;20818;-50
2021/03/11 02:03:29;;;;;;;12.50;9.10;;;;;;;1.78;100.00;95546.00;1023477;29;20065;-50
2021/03/11 02:04:00;;;;;;;12.93;9.00;;;;;;;1.79;100.00;95546.88;1027407;28;20590;-51
2021/03/11 02:04:31;;;;;;;14.32;9.27;;;;;;;1.79;100.00;95542.53;1015721;29;20035;-50
2021/03/11 02:05:05;;;;;;;13.05;8.52;;;;;;;1.81;100.00;95547.66;1023482;29;20023;-48
2021/03/11 02:05:36;;;;;;;13.00;9.60;;;;;;;1.78;100.00;95540.84;1027470;28;20297;-51
2021/03/11 02:06:06;;;;;;;11.63;9.25;;;;;;;1.78;100.00;95548.59;1019481;29;20637;-48
2021/03/11 02:06:37;;;;;;;12.00;9.40;;;;;;;1.74;100.00;95545.28;1011955;29;20033;-50
2021/03/11 02:07:08;;;;;;;14.75;10.18;;;;;;;1.70;100.00;95542.91;1023567;28;20138;-51
2021/03/11 02:07:39;;;;;;;15.13;10.32;;;;;;;1.68;100.00;95535.22;1023623;28;20031;-50
2021/03/11 02:08:10;;;;;;;15.13;10.05;;;;;;;1.77;100.00;95546.09;1019436;29;20378;-50
2021/03/11 02:08:42;;;;;;;14.77;9.85;;;;;;;1.81;100.00;95550.22;1019566;29;20076;-50
2021/03/11 02:09:13;;;;;;;12.90;9.50;;;;;;;1.87;100.00;95537.03;1015709;29;20033;-50
2021/03/11 02:09:43;;;;;;;12.88;9.45;;;;;;;1.81;100.00;95529.56;1023545;29;20263;-50
2021/03/11 02:10:19;;;;;;;14.23;9.77;;;;;;;1.80;100.00;95533.03;1019524;28;20327;-49
2021/03/11 02:10:50;;;;;;;14.02;9.18;;;;;;;1.77;100.00;95533.19;1011788;29;20032;-50
2021/03/11 02:11:25;;;;;;;15.65;10.23;;;;;;;1.79;100.00;95539.94;1023581;29;20250;-50
2021/03/11 02:12:10;;;;;;;13.60;9.43;;;;;;;1.84;100.00;95529.41;1023566;29;20752;-51
2021/03/11 02:12:58;;;;;;;13.15;10.10;;;;;;;1.88;100.00;95538.72;1019706;29;20414;-50
2021/03/11 02:13:34;;;;;;;15.57;10.32;;;;;;;1.82;100.00;95539.84;1019702;28;20373;-48
2021/03/11 02:14:16;;;;;;;14.25;10.45;;;;;;;1.80;100.00;95522.69;1023460;28;20619;-51
2021/03/11 02:15:06;;;;;;;14.70;9.80;;;;;;;1.88;100.00;95530.97;1023533;28;20267;-50
2021/03/11 02:15:49;;;;;;;15.23;10.18;;;;;;;1.89;100.00;95528.31;1023258;28;20297;-50
2021/03/11 02:16:22;;;;;;;13.07;9.50;;;;;;;1.91;100.00;95530.84;1023630;28;20787;-50
2021/03/11 02:16:53;;;;;;;13.70;9.75;;;;;;;1.90;100.00;95530.00;1023551;28;20693;-51
2021/03/11 02:17:25;;;;;;;15.40;10.38;;;;;;;1.86;100.00;95537.94;1011772;29;20275;-50
2021/03/11 02:18:07;;;;;;;13.52;10.00;;;;;;;1.92;100.00;95537.69;1019534;29;20299;-49
2021/03/11 02:18:43;;;;;;;13.18;9.55;;;;;;;1.96;100.00;95522.91;1024060;28;20265;-49
2021/03/11 02:19:33;;;;;;;13.82;9.93;;;;;;;1.95;100.00;95527.22;1024419;28;20259;-50
2021/03/11 02:20:23;;;;;;;16.90;10.68;;;;;;;1.91;100.00;95528.25;1028372;28;20348;-50
2021/03/11 02:21:09;;;;;;;14.00;10.10;;;;;;;1.93;100.00;95521.28;1024283;29;20442;-50
2021/03/11 02:21:42;;;;;;;12.85;9.07;;;;;;;1.93;100.00;95518.69;1019952;28;20015;-50
2021/03/11 02:22:25;;;;;;;12.10;9.05;;;;;;;1.99;100.00;95523.59;1020364;29;20766;-50
2021/03/11 02:23:15;;;;;;;15.65;9.98;;;;;;;1.95;100.00;95532.38;1024152;29;20291;-49
2021/03/11 02:24:00;;;;;;;12.95;8.63;;;;;;;1.97;100.00;95525.44;1020383;29;20276;-50
2021/03/11 02:24:50;;;;;;;13.30;9.90;;;;;;;1.92;100.00;95522.19;1028762;28;20035;-51
2021/03/11 02:25:31;;;;;;;11.65;8.75;;;;;;;1.97;100.00;95520.25;1027564;28;20328;-50
2021/03/11 02:26:21;;;;;;;15.70;9.23;;;;;;;1.91;100.00;95515.34;1020474;28;20020;-50
2021/03/11 02:27:14;;;;;;;14.13;9.48;;;;;;;1.95;100.00;95522.03;1024205;28;20292;-50